Huvudsida
METAR-TAF:

METAR-TAF

Flygplatser :

Bintulu, Malaysia

latitud: 03-12N, longitud: 113-02E, höjd: 2 m

Aktuellt väderrapport

Denna rapport gjordes för 47 minuter sedan, klockan 15:00 UTC
Vind 4 kt från ost, varierande mellan ost/nordost och sydost
Temperatur 26°C
Fuktighet 94%
Tryck 1010 hPa
Sikt 10 km eller mer
Få moln på en höjd av 1600 ft
Brutna moln på en höjd av 15000 ft

METAR: WBGB 271500Z 10004KT 070V130 9999 FEW016 BKN150 26/25 Q1010

Tid: 23:47 (15:47 UTC)

Väderprognos

Denna rapport gjordes för 4 timmar och 47 minuter sedan, klockan 11:00 UTC
Prognos gäller från 27 kl. 12 UTC till 28 kl. 12 UTC
Vind 3 kt varierande vindriktning
Sikt 10 km eller mer
Spridda moln på en höjd av 1600 ft
Temporärt
från 27 kl. 14 UTC till 27 kl. 18 UTC
Sikt: 4000 m
Få moln på en höjd av 1500 ft, Cumulonimbus.
åska, regn
Blir
från 28 kl. 05 UTC till 28 kl. 07 UTC
Vind 5 kt från väst/nordväst

TAF: WBGB 271100Z 2712/2812 VRB03KT 9999 SCT016 TEMPO 2714/2718 4000 TSRA FEW015CB BECMG 2805/2807 30005KT

Aktuella väderrapporter och prognoser från 4000 flygplatser (METAR- och TAF-rapporter).

De tillgängliga stationerna syns som gula och röda prickar på kartan.

För musen över prickarna för att se namnen på stationerna.

Klicka sedan för att få väderrapporter och prognoser.

För att ändra kartan: Klicka på de gröna knapparna med ett svart kors på för att zooma in; den gröna knappen med ett streck på för att zooma ut; eller på de gröna pilarna för angränsande kartor.


METAR-TAF: